This is the latest recevied weather packets stored in our database for station/object KC2G. If no packets are shown the sender has not sent any weather packets the latest 1 day(s).
| Time | Temp. | Humidity | Pressure | Rain* | Wind** | Luminosity | Snow |
|---|---|---|---|---|---|---|---|
| 1778052655 | 17.78° C | 77% | 1008.7 hPa | 0 mm | 0 m/s | - | - |
| 1778049955 | 18.89° C | 73% | 1008.8 hPa | 0 mm | 0.45 m/s, 138° | - | - |
| 1778047255 | 18.89° C | 71% | 1008.7 hPa | 0 mm | 0.45 m/s, 210° | - | - |
| 1778045896 | 19.44° C | 66% | 1009 hPa | 0 mm | 0.45 m/s, 131° | - | - |
| 1778045455 | 19.44° C | 67% | 1009 hPa | 0 mm | 0.45 m/s, 108° | - | - |
| 1778044555 | 19.44° C | 66% | 1009 hPa | 0 mm | 0.45 m/s, 131° | - | - |
| 1778043656 | 20° C | 66% | 1009.1 hPa | 0 mm | 0.45 m/s, 106° | - | - |
| 1778042755 | 20° C | 64% | 1009.1 hPa | 0 mm | 0.45 m/s, 131° | - | - |
| 1778041016 | 20° C | 63% | 1008.9 hPa | 0 mm | 0.45 m/s, 141° | - | - |
| 1778040955 | 20° C | 63% | 1008.9 hPa | 0 mm | 0.45 m/s, 141° | - | - |
| 1778040123 | 20.56° C | 61% | 1008.8 hPa | 0 mm | 0.45 m/s, 218° | - | - |
| 1778040106 | 20° C | 63% | 1008.8 hPa | 0 mm | 0.45 m/s, 116° | - | - |
| 1778039155 | 20.56° C | 61% | 1008.9 hPa | 0 mm | 0.45 m/s, 149° | - | - |
| 1778037354 | 21.11° C | 59% | 1008.7 hPa | 0 mm | 0.45 m/s, 141° | - | - |
| 1778036455 | 21.67° C | 57% | 1008.6 hPa | 0 mm | 0.45 m/s, 145° | - | - |
| 1778036288 | 22.22° C | 51% | 1008.4 hPa | 0 mm | 0.89 m/s, 142° | - | - |
| 1778035554 | 22.22° C | 54% | 1008.5 hPa | 0 mm | 0.45 m/s, 121° | - | - |
| 1778034741 | 22.22° C | 51% | 1008.4 hPa | 0 mm | 0.89 m/s, 142° | - | - |
| 1778034656 | 22.22° C | 51% | 1008.4 hPa | 0 mm | 0.89 m/s, 142° | - | - |
| 1778033754 | 22.78° C | 48% | 1008.3 hPa | 0 mm | 0 m/s | - | - |
| 1778032452 | 23.33° C | 44% | 1007.7 hPa | 0 mm | 0 m/s | - | - |
| 1778031954 | 23.33° C | 45% | 1007.8 hPa | 0 mm | 0.45 m/s, 183° | - | - |
| 1778031102 | 23.33° C | 44% | 1007.7 hPa | 0 mm | 0 m/s | - | - |
| 1778031055 | 23.33° C | 44% | 1007.7 hPa | 0 mm | 0 m/s | - | - |
| 1778030155 | 23.89° C | 42% | 1007.5 hPa | 0 mm | 0.45 m/s, 189° | - | - |
* Rain latest hour (hover to see other rain measurements)
** Current wind speed in m/s (hover to see current wind gust speed)